createdAt,value
2022-10-17T00:00:10.670Z,99.99
2022-10-17T00:01:10.717Z,99.99
2022-10-17T00:02:10.629Z,99.88
2022-10-17T00:03:10.612Z,99.99
2022-10-17T00:04:10.623Z,99.68
2022-10-17T00:05:10.607Z,99.99
2022-10-17T00:06:10.580Z,99.99
2022-10-17T00:07:10.565Z,99.99
2022-10-17T00:08:10.554Z,99.99
2022-10-17T00:09:10.562Z,99.99
2022-10-17T00:10:10.536Z,99.99
2022-10-17T00:11:10.519Z,99.99
2022-10-17T00:12:10.517Z,99.99
2022-10-17T00:13:10.497Z,99.99
2022-10-17T00:14:10.524Z,99.99
2022-10-17T00:15:10.495Z,99.77
2022-10-17T00:16:10.464Z,99.99
2022-10-17T00:17:10.453Z,99.99
2022-10-17T00:18:10.442Z,99.99
2022-10-17T00:19:10.432Z,99.99
2022-10-17T00:20:10.474Z,99.99
2022-10-17T00:21:10.412Z,99.99
2022-10-17T00:22:10.397Z,99.99
2022-10-17T00:23:10.384Z,99.99
2022-10-17T00:24:10.378Z,99.99
2022-10-17T00:25:10.383Z,99.99
2022-10-17T00:26:10.353Z,99.99
2022-10-17T00:27:10.364Z,99.99
2022-10-17T00:28:10.332Z,99.99
2022-10-17T00:29:10.412Z,99.99
2022-10-17T00:30:10.394Z,99.99
2022-10-17T00:31:10.299Z,99.99
2022-10-17T00:32:10.286Z,99.99
2022-10-17T00:33:10.295Z,99.99
2022-10-17T00:34:10.265Z,99.99
2022-10-17T00:35:10.249Z,99.99
2022-10-17T00:36:10.242Z,99.99
2022-10-17T00:37:10.257Z,99.99
2022-10-17T00:38:10.222Z,99.99
2022-10-17T00:39:10.210Z,99.99
2022-10-17T00:40:10.218Z,99.99
2022-10-17T00:41:10.183Z,99.99
2022-10-17T00:42:10.175Z,99.99
2022-10-17T00:43:10.161Z,99.99
2022-10-17T00:44:10.151Z,99.99
2022-10-17T00:45:10.159Z,99.99
2022-10-17T00:46:10.148Z,99.99
2022-10-17T00:47:10.115Z,99.99
2022-10-17T00:48:10.107Z,99.99
2022-10-17T00:49:10.102Z,99.99
2022-10-17T00:50:10.107Z,99.99
2022-10-17T00:51:10.073Z,99.99
2022-10-17T00:52:10.061Z,99.99
2022-10-17T00:53:10.052Z,99.99
2022-10-17T00:54:10.039Z,99.99
2022-10-17T00:55:10.059Z,99.99
2022-10-17T00:56:10.021Z,99.99
2022-10-17T00:57:10.004Z,99.99
2022-10-17T00:58:09.993Z,99.99
2022-10-17T00:59:10.090Z,99.99
2022-10-17T01:00:09.993Z,99.99
2022-10-17T01:01:10.025Z,99.99
2022-10-17T01:02:10.109Z,99.99
2022-10-17T01:03:09.937Z,99.99
2022-10-17T01:04:09.928Z,99.99
2022-10-17T01:05:09.917Z,99.99
2022-10-17T01:06:09.906Z,99.99
2022-10-17T01:07:09.913Z,99.99
2022-10-17T01:08:09.884Z,99.99
2022-10-17T01:09:09.875Z,99.99
2022-10-17T01:10:09.889Z,99.99
2022-10-17T01:11:09.848Z,99.99
2022-10-17T01:12:09.864Z,99.99
2022-10-17T01:13:09.825Z,99.99
2022-10-17T01:14:09.819Z,99.99
2022-10-17T01:15:09.810Z,99.99
2022-10-17T01:16:09.794Z,99.99
2022-10-17T01:17:09.799Z,99.99
2022-10-17T01:18:09.828Z,99.99
2022-10-17T01:19:09.781Z,99.99
2022-10-17T01:20:09.748Z,99.99
2022-10-17T01:21:09.736Z,99.99
2022-10-17T01:22:09.729Z,99.99
2022-10-17T01:23:09.725Z,99.99
2022-10-17T01:24:09.705Z,99.99
2022-10-17T01:25:09.712Z,99.99
2022-10-17T01:26:09.683Z,99.99
2022-10-17T01:27:09.704Z,99.99
2022-10-17T01:28:09.668Z,99.99
2022-10-17T01:29:09.687Z,99.99
2022-10-17T01:30:09.636Z,99.99
2022-10-17T01:31:09.625Z,99.99
2022-10-17T01:32:09.616Z,99.99
2022-10-17T01:33:09.622Z,99.99
2022-10-17T01:34:09.626Z,99.99
2022-10-17T01:35:09.581Z,99.99
2022-10-17T01:36:09.571Z,99.99
2022-10-17T01:37:09.558Z,99.99
2022-10-17T01:38:09.577Z,99.99
2022-10-17T01:39:09.534Z,99.99
2022-10-17T01:40:09.530Z,99.99
2022-10-17T01:41:09.518Z,99.99
2022-10-17T01:42:09.501Z,99.99
2022-10-17T01:43:09.527Z,99.99
2022-10-17T01:44:09.502Z,99.99
2022-10-17T01:45:09.468Z,99.99
2022-10-17T01:46:09.458Z,99.99
2022-10-17T01:47:09.451Z,99.99
2022-10-17T01:48:09.434Z,99.99
2022-10-17T01:49:09.447Z,99.99
2022-10-17T01:50:09.429Z,99.99
2022-10-17T01:51:09.415Z,99.99
2022-10-17T01:52:09.390Z,99.99
2022-10-17T01:53:09.399Z,99.99
2022-10-17T01:54:09.385Z,99.99
2022-10-17T01:55:09.361Z,99.99
2022-10-17T01:56:09.343Z,99.99
2022-10-17T01:57:09.354Z,99.99
2022-10-17T01:58:09.326Z,99.99
2022-10-17T01:59:09.330Z,99.99
2022-10-17T02:00:09.298Z,99.99
2022-10-17T02:01:09.376Z,99.99
2022-10-17T02:02:09.297Z,99.99
2022-10-17T02:03:09.289Z,99.99
2022-10-17T02:04:09.255Z,99.99
2022-10-17T02:05:09.246Z,99.99
2022-10-17T02:06:09.251Z,99.99
2022-10-17T02:07:09.238Z,99.99
2022-10-17T02:08:09.212Z,99.99
2022-10-17T02:09:09.219Z,99.99
2022-10-17T02:10:09.186Z,99.99
2022-10-17T02:11:09.184Z,99.99
2022-10-17T02:12:09.166Z,99.99
2022-10-17T02:13:09.193Z,99.99
2022-10-17T02:14:09.263Z,99.99
2022-10-17T02:15:09.134Z,99.99
2022-10-17T02:16:09.124Z,99.99
2022-10-17T02:17:09.116Z,99.99
2022-10-17T02:18:09.105Z,99.99
2022-10-17T02:19:09.111Z,99.99
2022-10-17T02:20:09.076Z,99.99
2022-10-17T02:21:09.064Z,99.99
2022-10-17T02:22:09.078Z,99.99
2022-10-17T02:23:09.061Z,99.99
2022-10-17T02:24:09.054Z,99.99
2022-10-17T02:25:09.026Z,99.99
2022-10-17T02:26:09.012Z,99.99
2022-10-17T02:27:09.010Z,99.99
2022-10-17T02:28:09.009Z,99.99
2022-10-17T02:29:08.997Z,99.99
2022-10-17T02:30:08.967Z,99.99
2022-10-17T02:31:08.955Z,99.99
2022-10-17T02:32:09.014Z,99.99
2022-10-17T02:33:08.932Z,99.99
2022-10-17T02:34:08.919Z,99.99
2022-10-17T02:35:08.957Z,99.99
2022-10-17T02:36:08.901Z,99.99
2022-10-17T02:37:08.928Z,99.99
2022-10-17T02:38:08.896Z,99.99
2022-10-17T02:39:08.882Z,99.99
2022-10-17T02:40:08.855Z,99.99
2022-10-17T02:41:08.845Z,99.99
2022-10-17T02:42:08.833Z,99.99
2022-10-17T02:43:08.838Z,99.99
2022-10-17T02:44:08.830Z,99.99
2022-10-17T02:45:08.816Z,99.99
2022-10-17T02:46:08.783Z,99.99
2022-10-17T02:47:08.775Z,99.99
2022-10-17T02:48:08.763Z,99.99
2022-10-17T02:49:08.751Z,99.99
2022-10-17T02:50:08.760Z,99.99
2022-10-17T02:51:08.728Z,99.99
2022-10-17T02:52:08.720Z,99.99
2022-10-17T02:53:08.705Z,99.99
2022-10-17T02:54:08.737Z,99.99
2022-10-17T02:55:08.717Z,99.99
2022-10-17T02:56:08.675Z,99.99
2022-10-17T02:57:08.660Z,99.99
2022-10-17T02:58:08.658Z,99.99
2022-10-17T02:59:08.658Z,99.99
2022-10-17T03:00:08.654Z,99.99
2022-10-17T03:01:08.697Z,99.99
2022-10-17T03:02:08.604Z,99.99
2022-10-17T03:03:08.595Z,99.99
2022-10-17T03:04:08.582Z,99.99
2022-10-17T03:05:08.573Z,99.99
2022-10-17T03:06:08.581Z,99.99
2022-10-17T03:07:08.552Z,99.99
2022-10-17T03:08:08.566Z,99.99
2022-10-17T03:09:08.527Z,99.99
2022-10-17T03:10:08.533Z,99.99
2022-10-17T03:11:08.581Z,99.99
2022-10-17T03:12:08.494Z,99.99
2022-10-17T03:13:08.481Z,99.99
2022-10-17T03:14:08.489Z,99.99
2022-10-17T03:15:08.486Z,99.99
2022-10-17T03:16:08.451Z,99.99
2022-10-17T03:17:08.466Z,99.99
2022-10-17T03:18:08.426Z,99.99
2022-10-17T03:19:08.442Z,99.99
2022-10-17T03:20:08.409Z,99.99
2022-10-17T03:21:08.393Z,99.99
2022-10-17T03:22:08.406Z,99.99
2022-10-17T03:23:08.381Z,99.99
2022-10-17T03:24:08.361Z,99.99
2022-10-17T03:25:08.400Z,99.99
2022-10-17T03:26:08.354Z,99.99
2022-10-17T03:27:08.327Z,99.99
2022-10-17T03:28:08.314Z,99.99
2022-10-17T03:29:08.373Z,99.99
2022-10-17T03:30:08.300Z,99.99
2022-10-17T03:31:08.321Z,99.99
2022-10-17T03:32:08.271Z,99.99
2022-10-17T03:33:08.260Z,99.99
2022-10-17T03:34:08.269Z,99.99
2022-10-17T03:35:11.256Z,99.99
2022-10-17T03:36:09.246Z,99.99
2022-10-17T03:37:08.214Z,99.99
2022-10-17T03:38:08.204Z,99.99
2022-10-17T03:39:08.193Z,99.99
2022-10-17T03:40:08.180Z,99.99
2022-10-17T03:41:08.189Z,99.99
2022-10-17T03:42:08.174Z,99.99
2022-10-17T03:43:08.146Z,99.99
2022-10-17T03:44:08.159Z,99.99
2022-10-17T03:45:08.124Z,99.99
2022-10-17T03:46:08.206Z,99.99
2022-10-17T03:47:10.472Z,99.99
2022-10-17T03:48:09.110Z,99.99
2022-10-17T03:49:08.081Z,99.99
2022-10-17T03:50:08.067Z,99.99
2022-10-17T03:51:08.077Z,99.99
2022-10-17T03:52:08.049Z,99.99
2022-10-17T03:53:08.037Z,99.99
2022-10-17T03:54:08.026Z,99.99
2022-10-17T03:55:08.011Z,99.99
2022-10-17T03:56:08.028Z,99.99
2022-10-17T03:57:07.990Z,99.99
2022-10-17T03:58:07.998Z,99.99
2022-10-17T03:59:07.966Z,99.99
2022-10-17T04:00:07.980Z,99.99
2022-10-17T04:01:08.042Z,99.99
2022-10-17T04:02:07.954Z,99.99
2022-10-17T04:03:07.921Z,99.99
2022-10-17T04:04:07.915Z,99.99
2022-10-17T04:05:07.902Z,99.99
2022-10-17T04:06:07.911Z,99.99
2022-10-17T04:07:07.880Z,99.99
2022-10-17T04:08:07.868Z,99.99
2022-10-17T04:09:07.855Z,99.99
2022-10-17T04:10:07.866Z,99.99
2022-10-17T04:11:07.833Z,99.99
2022-10-17T04:12:07.849Z,99.99
2022-10-17T04:13:07.809Z,99.99
2022-10-17T04:14:07.815Z,99.99
2022-10-17T04:15:07.786Z,99.99
2022-10-17T04:16:07.776Z,99.99
2022-10-17T04:17:07.783Z,99.99
2022-10-17T04:18:07.759Z,99.99
2022-10-17T04:19:07.745Z,99.99
2022-10-17T04:20:07.731Z,99.99
2022-10-17T04:21:07.722Z,99.99
2022-10-17T04:22:07.730Z,99.99
2022-10-17T04:23:07.718Z,99.99
2022-10-17T04:24:07.687Z,99.99
2022-10-17T04:25:07.676Z,99.99
2022-10-17T04:26:07.670Z,99.99
2022-10-17T04:27:07.656Z,99.99
2022-10-17T04:28:07.841Z,99.99
2022-10-17T04:29:07.632Z,99.99
2022-10-17T04:30:07.638Z,99.99
2022-10-17T04:31:07.607Z,99.99
2022-10-17T04:32:07.596Z,99.99
2022-10-17T04:33:07.605Z,99.99
2022-10-17T04:34:07.575Z,99.99
2022-10-17T04:35:07.562Z,99.99
2022-10-17T04:36:07.550Z,99.99
2022-10-17T04:37:07.563Z,99.99
2022-10-17T04:38:07.536Z,99.99
2022-10-17T04:39:07.562Z,99.99
2022-10-17T04:40:07.508Z,99.99
2022-10-17T04:41:07.494Z,99.99
2022-10-17T04:42:07.505Z,99.99
2022-10-17T04:43:07.491Z,99.99
2022-10-17T04:44:07.490Z,99.99
2022-10-17T04:45:07.451Z,99.99
2022-10-17T04:46:07.461Z,99.99
2022-10-17T04:47:07.429Z,99.99
2022-10-17T04:48:07.419Z,99.99
2022-10-17T04:49:07.426Z,99.99
2022-10-17T04:50:07.427Z,99.99
2022-10-17T04:51:07.382Z,99.99
2022-10-17T04:52:07.373Z,99.99
2022-10-17T04:53:07.359Z,99.99
2022-10-17T04:54:07.369Z,99.99
2022-10-17T04:55:07.346Z,99.99
2022-10-17T04:56:07.356Z,99.99
2022-10-17T04:57:07.316Z,99.99
2022-10-17T04:58:07.312Z,99.99
2022-10-17T04:59:07.292Z,99.99
2022-10-17T05:00:07.305Z,99.99
2022-10-17T05:01:07.337Z,99.99
2022-10-17T05:02:07.285Z,99.99
2022-10-17T05:03:07.256Z,99.99
2022-10-17T05:04:07.268Z,99.99
2022-10-17T05:05:07.265Z,99.99
2022-10-17T05:06:07.221Z,99.99
2022-10-17T05:07:07.209Z,99.99
2022-10-17T05:08:07.200Z,99.99
2022-10-17T05:09:07.180Z,99.99
2022-10-17T05:10:07.195Z,99.99
2022-10-17T05:11:07.180Z,99.99
2022-10-17T05:12:09.575Z,99.99
2022-10-17T05:13:07.137Z,99.99
2022-10-17T05:14:07.130Z,99.99
2022-10-17T05:15:07.171Z,99.99
2022-10-17T05:16:07.124Z,99.99
2022-10-17T05:17:07.094Z,99.99
2022-10-17T05:18:07.097Z,99.99
2022-10-17T05:19:07.069Z,99.99
2022-10-17T05:20:07.086Z,99.99
2022-10-17T05:21:07.051Z,99.99
2022-10-17T05:22:07.041Z,99.99
2022-10-17T05:23:07.027Z,99.99
2022-10-17T05:24:07.020Z,99.99
2022-10-17T05:25:07.026Z,99.99
2022-10-17T05:26:06.998Z,99.99
2022-10-17T05:27:06.984Z,99.99
2022-10-17T05:28:06.975Z,99.99
2022-10-17T05:29:07.033Z,99.99
2022-10-17T05:30:06.970Z,99.99
2022-10-17T05:31:06.958Z,99.99
2022-10-17T05:32:06.928Z,99.99
2022-10-17T05:33:06.919Z,99.99
2022-10-17T05:34:09.096Z,99.99
2022-10-17T05:35:06.894Z,99.99
2022-10-17T05:36:06.903Z,99.99
2022-10-17T05:37:06.869Z,99.99
2022-10-17T05:38:06.858Z,99.99
2022-10-17T05:39:06.845Z,99.99
2022-10-17T05:40:06.841Z,99.99
2022-10-17T05:41:06.847Z,99.99
2022-10-17T05:42:06.817Z,99.99
2022-10-17T05:43:06.804Z,99.99
2022-10-17T05:44:06.792Z,99.99
2022-10-17T05:45:07.208Z,99.99
2022-10-17T05:46:06.788Z,99.99
2022-10-17T05:47:06.760Z,99.99
2022-10-17T05:48:06.771Z,99.99
2022-10-17T05:49:15.002Z,99.99
2022-10-17T05:50:07.739Z,99.99
2022-10-17T05:51:06.713Z,99.99
2022-10-17T05:52:06.707Z,99.99
2022-10-17T05:53:06.711Z,99.99
2022-10-17T05:54:06.680Z,99.85
2022-10-17T05:55:06.670Z,99.64
2022-10-17T05:56:06.660Z,99.95
2022-10-17T05:57:06.668Z,99.85
2022-10-17T05:58:06.662Z,99.74
2022-10-17T05:59:07.230Z,99.95
2022-10-17T06:00:06.660Z,99.74
2022-10-17T06:01:09.359Z,99.64
2022-10-17T06:02:07.650Z,99.95
2022-10-17T06:03:06.577Z,99.99
2022-10-17T06:04:06.589Z,99.95
2022-10-17T06:05:06.555Z,99.95
2022-10-17T06:06:06.566Z,99.95
2022-10-17T06:07:06.532Z,99.95
2022-10-17T06:08:06.544Z,99.85
2022-10-17T06:09:06.539Z,99.64
2022-10-17T06:10:06.500Z,99.44
2022-10-17T06:11:09.877Z,99.08
2022-10-17T06:12:06.505Z,99.39
2022-10-17T06:13:06.476Z,99.39
2022-10-17T06:14:06.475Z,99.29
2022-10-17T06:15:06.445Z,99.90
2022-10-17T06:16:06.433Z,99.69
2022-10-17T06:17:06.452Z,99.29
2022-10-17T06:18:06.411Z,99.19
2022-10-17T06:19:06.421Z,99.08
2022-10-17T06:20:06.388Z,99.35
2022-10-17T06:21:06.380Z,98.94
2022-10-17T06:22:06.387Z,99.04
2022-10-17T06:23:06.358Z,99.44
2022-10-17T06:24:06.387Z,98.63
2022-10-17T06:25:06.331Z,98.84
2022-10-17T06:26:06.322Z,99.14
2022-10-17T06:27:10.915Z,99.24
2022-10-17T06:28:07.299Z,98.84
2022-10-17T06:29:06.389Z,98.74
2022-10-17T06:30:06.279Z,98.99
2022-10-17T06:31:06.267Z,98.28
2022-10-17T06:32:07.678Z,98.49
2022-10-17T06:33:06.262Z,98.65
2022-10-17T06:34:06.235Z,97.33
2022-10-17T06:35:06.225Z,97.53
2022-10-17T06:36:06.211Z,97.53
2022-10-17T06:37:06.200Z,97.13
2022-10-17T06:38:06.228Z,96.82
2022-10-17T06:39:06.210Z,96.57
2022-10-17T06:40:06.169Z,95.86
2022-10-17T06:41:06.159Z,95.72
2022-10-17T06:42:06.144Z,95.72
2022-10-17T06:43:06.131Z,95.51
2022-10-17T06:44:06.119Z,94.56
2022-10-17T06:45:06.134Z,94.26
2022-10-17T06:46:06.098Z,93.55
2022-10-17T06:47:06.088Z,93.04
2022-10-17T06:48:06.076Z,92.49
2022-10-17T06:49:06.067Z,92.60
2022-10-17T06:50:06.073Z,92.49
2022-10-17T06:51:06.054Z,91.78
2022-10-17T06:52:06.038Z,91.64
2022-10-17T06:53:06.021Z,91.64
2022-10-17T06:54:06.028Z,91.54
2022-10-17T06:55:06.023Z,91.14
2022-10-17T06:56:06.017Z,90.94
2022-10-17T06:57:05.984Z,90.94
2022-10-17T06:58:05.968Z,90.83
2022-10-17T06:59:05.957Z,91.34
2022-10-17T07:00:05.946Z,90.33
2022-10-17T07:01:06.101Z,90.59
2022-10-17T07:02:05.919Z,90.89
2022-10-17T07:03:05.909Z,91.03
2022-10-17T07:04:05.901Z,90.23
2022-10-17T07:05:05.889Z,90.69
2022-10-17T07:06:05.895Z,90.59
2022-10-17T07:07:05.885Z,90.39
2022-10-17T07:08:05.853Z,90.69
2022-10-17T07:09:05.844Z,89.84
2022-10-17T07:10:05.848Z,89.64
2022-10-17T07:11:05.845Z,90.04
2022-10-17T07:12:05.810Z,89.94
2022-10-17T07:13:05.822Z,89.13
2022-10-17T07:14:05.789Z,89.34
2022-10-17T07:15:05.780Z,89.09
2022-10-17T07:16:05.790Z,88.79
2022-10-17T07:17:05.758Z,89.09
2022-10-17T07:18:05.745Z,88.79
2022-10-17T07:19:05.735Z,88.08
2022-10-17T07:20:05.725Z,88.68
2022-10-17T07:21:05.734Z,88.65
2022-10-17T07:22:05.699Z,87.94
2022-10-17T07:23:05.691Z,87.54
2022-10-17T07:24:05.681Z,87.43
2022-10-17T07:25:05.681Z,87.43
2022-10-17T07:26:05.690Z,87.54
2022-10-17T07:27:05.678Z,86.93
2022-10-17T07:28:05.655Z,86.83
2022-10-17T07:29:05.763Z,87.29
2022-10-17T07:30:05.633Z,87.34
2022-10-17T07:31:05.603Z,86.18
2022-10-17T07:32:05.586Z,85.98
2022-10-17T07:33:05.600Z,85.94
2022-10-17T07:34:05.599Z,85.38
2022-10-17T07:35:05.562Z,85.84
2022-10-17T07:36:05.547Z,85.54
2022-10-17T07:37:05.574Z,85.84
2022-10-17T07:38:05.520Z,85.44
2022-10-17T07:39:05.509Z,84.69
2022-10-17T07:40:05.519Z,84.69
2022-10-17T07:41:05.487Z,84.19
2022-10-17T07:42:05.496Z,83.99
2022-10-17T07:43:05.465Z,83.95
2022-10-17T07:44:05.473Z,83.75
2022-10-17T07:45:05.444Z,83.00
2022-10-17T07:46:05.437Z,83.61
2022-10-17T07:47:05.427Z,83.26
2022-10-17T07:48:05.412Z,82.36
2022-10-17T07:49:05.421Z,82.16
2022-10-17T07:50:05.418Z,82.46
2022-10-17T07:51:05.378Z,82.52
2022-10-17T07:52:05.369Z,82.52
2022-10-17T07:53:05.364Z,81.01
2022-10-17T07:54:05.372Z,81.41
2022-10-17T07:55:05.332Z,80.71
2022-10-17T07:56:05.342Z,81.41
2022-10-17T07:57:05.310Z,81.52
2022-10-17T07:58:05.313Z,81.07
2022-10-17T07:59:08.407Z,80.98
2022-10-17T08:00:05.297Z,81.18
2022-10-17T08:01:06.604Z,81.21
2022-10-17T08:02:05.261Z,81.18
2022-10-17T08:03:05.274Z,81.27
2022-10-17T08:04:05.235Z,81.07
2022-10-17T08:05:05.245Z,80.57
2022-10-17T08:06:05.208Z,80.88
2022-10-17T08:07:19.722Z,81.18
2022-10-17T08:08:06.185Z,81.18
2022-10-17T08:09:05.198Z,81.38
2022-10-17T08:10:05.217Z,80.47
2022-10-17T08:11:05.157Z,80.57
2022-10-17T08:12:05.141Z,80.88
2022-10-17T08:13:05.133Z,81.14
2022-10-17T08:14:05.158Z,80.98
2022-10-17T08:15:05.112Z,79.97
2022-10-17T08:16:05.122Z,81.04
2022-10-17T08:17:05.088Z,80.88
2022-10-17T08:18:05.079Z,81.07
2022-10-17T08:19:05.119Z,80.88
2022-10-17T08:20:05.142Z,81.04
2022-10-17T08:21:05.045Z,81.54
2022-10-17T08:22:05.057Z,81.14
2022-10-17T08:23:05.022Z,81.04
2022-10-17T08:24:05.012Z,81.14
2022-10-17T08:25:05.004Z,79.83
2022-10-17T08:26:04.991Z,80.43
2022-10-17T08:27:04.981Z,80.83
2022-10-17T08:28:05.075Z,80.94
2022-10-17T08:29:05.006Z,80.70
2022-10-17T08:30:04.960Z,80.83
2022-10-17T08:31:04.954Z,79.60
2022-10-17T08:32:07.742Z,79.99
2022-10-17T08:33:04.919Z,79.96
2022-10-17T08:34:04.899Z,80.46
2022-10-17T08:35:04.893Z,79.66
2022-10-17T08:36:04.880Z,78.66
2022-10-17T08:37:04.935Z,78.66
2022-10-17T08:38:04.857Z,78.15
2022-10-17T08:39:04.845Z,78.05
2022-10-17T08:40:04.834Z,77.65
2022-10-17T08:41:04.827Z,78.05
2022-10-17T08:42:04.832Z,77.85
2022-10-17T08:43:04.804Z,77.85
2022-10-17T08:44:04.792Z,77.85
2022-10-17T08:45:04.783Z,78.45
2022-10-17T08:46:04.862Z,78.45
2022-10-17T08:47:04.791Z,79.05
2022-10-17T08:48:04.743Z,78.85
2022-10-17T08:49:06.618Z,79.46
2022-10-17T08:50:04.725Z,78.02
2022-10-17T08:51:04.715Z,78.45
2022-10-17T08:52:04.702Z,78.15
2022-10-17T08:53:04.691Z,77.65
2022-10-17T08:54:04.699Z,78.25
2022-10-17T08:55:04.671Z,78.05
2022-10-17T08:56:04.655Z,78.02
2022-10-17T08:57:04.650Z,78.72
2022-10-17T08:58:04.786Z,78.22
2022-10-17T08:59:04.630Z,77.28
2022-10-17T09:00:04.616Z,77.37
2022-10-17T09:01:06.990Z,77.58
2022-10-17T09:02:05.611Z,77.28
2022-10-17T09:03:04.646Z,77.37
2022-10-17T09:04:04.573Z,77.28
2022-10-17T09:05:04.607Z,77.08
2022-10-17T09:06:04.546Z,77.24
2022-10-17T09:07:04.536Z,76.34
2022-10-17T09:08:04.560Z,77.74
2022-10-17T09:09:04.517Z,77.80
2022-10-17T09:10:04.507Z,76.40
2022-10-17T09:11:04.490Z,76.74
2022-10-17T09:12:04.480Z,76.04
2022-10-17T09:13:06.829Z,76.34
2022-10-17T09:14:04.479Z,76.30
2022-10-17T09:15:04.447Z,76.64
2022-10-17T09:16:04.433Z,76.43
2022-10-17T09:17:04.427Z,76.70
2022-10-17T09:18:04.458Z,76.20
2022-10-17T09:19:04.429Z,76.00
2022-10-17T09:20:04.390Z,76.10
2022-10-17T09:21:04.378Z,76.50
2022-10-17T09:22:04.366Z,76.00
2022-10-17T09:23:04.363Z,76.50
2022-10-17T09:24:09.828Z,76.17
2022-10-17T09:25:05.335Z,76.37
2022-10-17T09:26:04.322Z,76.43
2022-10-17T09:27:04.314Z,75.39
2022-10-17T09:28:04.303Z,75.39
2022-10-17T09:29:04.334Z,74.13
2022-10-17T09:30:04.681Z,74.76
2022-10-17T09:31:04.273Z,75.76
2022-10-17T09:32:04.257Z,74.87
2022-10-17T09:33:04.275Z,75.67
2022-10-17T09:34:04.252Z,75.46
2022-10-17T09:35:04.250Z,74.56
2022-10-17T09:36:04.214Z,75.26
2022-10-17T09:37:04.207Z,75.16
2022-10-17T09:38:04.190Z,76.56
2022-10-17T09:39:04.184Z,76.23
2022-10-17T09:40:04.192Z,76.39
2022-10-17T09:41:15.745Z,74.79
2022-10-17T09:42:05.168Z,74.26
2022-10-17T09:43:04.138Z,73.75
2022-10-17T09:44:04.144Z,74.76
2022-10-17T09:45:04.116Z,75.16
2022-10-17T09:46:04.123Z,73.75
2022-10-17T09:47:04.114Z,74.46
2022-10-17T09:48:04.084Z,74.76
2022-10-17T09:49:04.076Z,74.82
2022-10-17T09:50:04.110Z,74.82
2022-10-17T09:51:15.080Z,74.58
2022-10-17T09:52:05.072Z,73.49
2022-10-17T09:53:04.030Z,74.25
2022-10-17T09:54:04.086Z,73.25
2022-10-17T09:55:04.035Z,71.66
2022-10-17T09:56:04.000Z,72.65
2022-10-17T09:57:04.007Z,71.86
2022-10-17T09:58:03.972Z,72.32
2022-10-17T09:59:03.987Z,71.45
2022-10-17T10:00:04.226Z,72.22
2022-10-17T10:01:03.987Z,72.81
2022-10-17T10:02:03.933Z,71.72
2022-10-17T10:03:03.918Z,71.12
2022-10-17T10:04:03.906Z,72.52
2022-10-17T10:05:05.605Z,71.12
2022-10-17T10:06:03.904Z,70.95
2022-10-17T10:07:03.874Z,71.45
2022-10-17T10:08:03.872Z,71.95
2022-10-17T10:09:03.855Z,72.25
2022-10-17T10:10:03.859Z,72.65
2022-10-17T10:11:03.833Z,71.45
2022-10-17T10:12:03.814Z,72.32
2022-10-17T10:13:03.809Z,72.02
2022-10-17T10:14:03.814Z,71.32
2022-10-17T10:15:03.804Z,71.62
2022-10-17T10:16:03.770Z,71.22
2022-10-17T10:17:03.761Z,71.26
2022-10-17T10:18:03.774Z,70.76
2022-10-17T10:19:05.866Z,71.15
2022-10-17T10:20:04.733Z,71.45
2022-10-17T10:21:03.741Z,72.55
2022-10-17T10:22:03.719Z,71.45
2022-10-17T10:23:03.693Z,72.12
2022-10-17T10:24:03.701Z,71.12
2022-10-17T10:25:03.671Z,71.32
2022-10-17T10:26:03.667Z,72.28
2022-10-17T10:27:03.649Z,70.79
2022-10-17T10:28:03.637Z,70.75
2022-10-17T10:29:03.717Z,70.26
2022-10-17T10:30:03.611Z,69.89
2022-10-17T10:31:03.603Z,69.79
2022-10-17T10:32:03.589Z,70.89
2022-10-17T10:33:03.582Z,70.99
2022-10-17T10:34:03.590Z,70.49
2022-10-17T10:35:03.560Z,70.56
2022-10-17T10:36:03.548Z,71.25
2022-10-17T10:37:03.549Z,71.05
2022-10-17T10:38:03.545Z,69.96
2022-10-17T10:39:04.645Z,70.45
2022-10-17T10:40:03.503Z,69.92
2022-10-17T10:41:03.492Z,69.99
2022-10-17T10:42:03.481Z,69.99
2022-10-17T10:43:05.565Z,70.98
2022-10-17T10:44:03.458Z,69.16
2022-10-17T10:45:03.470Z,69.66
2022-10-17T10:46:03.440Z,69.26
2022-10-17T10:47:03.451Z,69.06
2022-10-17T10:48:03.415Z,69.43
2022-10-17T10:49:03.432Z,68.63
2022-10-17T10:50:03.396Z,68.53
2022-10-17T10:51:03.388Z,68.50
2022-10-17T10:52:03.372Z,68.80
2022-10-17T10:53:03.383Z,68.99
2022-10-17T10:54:03.392Z,68.70
2022-10-17T10:55:03.342Z,68.99
2022-10-17T10:56:03.328Z,68.73
2022-10-17T10:57:03.342Z,68.70
2022-10-17T10:58:03.308Z,67.60
2022-10-17T10:59:03.321Z,67.80
2022-10-17T11:00:03.288Z,67.80
2022-10-17T11:01:03.341Z,67.77
2022-10-17T11:02:03.266Z,67.27
2022-10-17T11:03:03.884Z,67.14
2022-10-17T11:04:03.269Z,64.95
2022-10-17T11:05:03.230Z,64.89
2022-10-17T11:06:03.223Z,65.88
2022-10-17T11:07:03.231Z,67.37
2022-10-17T11:08:03.200Z,66.48
2022-10-17T11:09:03.191Z,65.45
2022-10-17T11:10:03.223Z,65.55
2022-10-17T11:11:03.165Z,67.07
2022-10-17T11:12:03.178Z,65.72
2022-10-17T11:13:03.146Z,66.11
2022-10-17T11:14:03.134Z,66.35
2022-10-17T11:15:03.127Z,67.33
2022-10-17T11:16:03.121Z,67.21
2022-10-17T11:17:03.129Z,67.40
2022-10-17T11:18:03.109Z,67.21
2022-10-17T11:19:03.086Z,67.44
2022-10-17T11:20:03.069Z,67.04
2022-10-17T11:21:03.089Z,65.45
2022-10-17T11:22:03.074Z,66.84
2022-10-17T11:23:03.038Z,65.45
2022-10-17T11:24:06.771Z,65.94
2022-10-17T11:25:04.013Z,64.95
2022-10-17T11:26:03.022Z,64.85
2022-10-17T11:27:02.994Z,63.95
2022-10-17T11:28:05.217Z,63.79
2022-10-17T11:29:03.024Z,65.75
2022-10-17T11:30:02.963Z,64.48
2022-10-17T11:31:05.744Z,64.78
2022-10-17T11:32:02.939Z,65.38
2022-10-17T11:33:02.943Z,64.48
2022-10-17T11:34:02.916Z,64.18
2022-10-17T11:35:02.926Z,64.39
2022-10-17T11:36:02.919Z,63.62
2022-10-17T11:37:02.885Z,64.01
2022-10-17T11:38:02.878Z,63.62
2022-10-17T11:39:02.865Z,64.51
2022-10-17T11:40:02.879Z,64.18
2022-10-17T11:41:02.840Z,64.28
2022-10-17T11:42:04.159Z,63.56
2022-10-17T11:43:02.822Z,63.95
2022-10-17T11:44:02.818Z,62.99
2022-10-17T11:45:02.795Z,63.76
2022-10-17T11:46:02.825Z,63.59
2022-10-17T11:47:02.774Z,63.56
2022-10-17T11:48:02.789Z,62.96
2022-10-17T11:49:02.760Z,63.66
2022-10-17T11:52:03.799Z,64.09
2022-10-17T11:53:02.969Z,63.95
2022-10-17T11:54:02.724Z,63.56
2022-10-17T11:55:02.689Z,63.36
2022-10-17T11:56:02.691Z,63.53
2022-10-17T11:57:02.667Z,63.92
2022-10-17T11:58:02.673Z,63.63
2022-10-17T11:59:02.673Z,63.73
2022-10-17T12:00:02.643Z,62.50
2022-10-17T12:01:02.621Z,62.80
2022-10-17T12:02:02.615Z,62.21
2022-10-17T12:03:02.624Z,62.40
2022-10-17T12:04:02.644Z,62.30
2022-10-17T12:05:02.583Z,62.80
2022-10-17T12:06:02.590Z,62.60
2022-10-17T12:07:02.581Z,61.83
2022-10-17T12:08:02.549Z,62.73
2022-10-17T12:09:02.535Z,62.96
2022-10-17T12:10:02.550Z,62.69
2022-10-17T12:11:02.518Z,62.89
2022-10-17T12:12:02.550Z,63.09
2022-10-17T12:13:02.517Z,63.59
2022-10-17T12:14:05.917Z,64.09
2022-10-17T12:15:02.474Z,63.49
2022-10-17T12:16:02.462Z,64.18
2022-10-17T12:17:02.468Z,64.28
2022-10-17T12:18:02.451Z,63.16
2022-10-17T12:19:02.430Z,64.06
2022-10-17T12:20:02.447Z,63.16
2022-10-17T12:21:02.409Z,62.73
2022-10-17T12:22:02.403Z,61.74
2022-10-17T12:23:02.386Z,60.94
2022-10-17T12:24:02.379Z,61.14
2022-10-17T12:25:02.362Z,60.94
2022-10-17T12:26:04.665Z,61.83
2022-10-17T12:27:02.343Z,61.14
2022-10-17T12:28:02.353Z,62.04
2022-10-17T12:29:02.413Z,61.24
2022-10-17T12:30:02.335Z,61.24
2022-10-17T12:31:02.327Z,60.71
2022-10-17T12:32:02.288Z,61.80
2022-10-17T12:33:07.171Z,60.84
2022-10-17T12:34:03.265Z,61.34
2022-10-17T12:35:02.255Z,61.24
2022-10-17T12:36:02.581Z,60.84
2022-10-17T12:37:02.257Z,61.17
2022-10-17T12:38:02.224Z,61.24
2022-10-17T12:39:02.226Z,61.64
2022-10-17T12:40:02.201Z,62.04
2022-10-17T12:41:02.210Z,61.44
2022-10-17T12:42:02.180Z,62.16
2022-10-17T12:43:02.168Z,61.67
2022-10-17T12:44:02.178Z,61.87
2022-10-17T12:45:02.149Z,61.96
2022-10-17T12:46:02.187Z,62.37
2022-10-17T12:47:02.132Z,61.77
2022-10-17T12:48:02.119Z,62.66
2022-10-17T12:49:02.121Z,62.66
2022-10-17T12:50:02.096Z,62.43
2022-10-17T12:52:03.071Z,61.71
2022-10-17T12:53:02.063Z,61.21
2022-10-17T12:54:02.052Z,60.52
2022-10-17T12:55:14.831Z,60.94